sensor_id;sensor_type;location;lat;lon;timestamp;P1;durP1;ratioP1;P2;durP2;ratioP2
73296;SDS011;61524;50.938;11.396;2022-08-19T00:00:05;22.95;;;16.35;;
73296;SDS011;61524;50.938;11.396;2022-08-19T00:02:33;25.67;;;18.05;;
73296;SDS011;61524;50.938;11.396;2022-08-19T00:04:59;24.33;;;16.55;;
73296;SDS011;61524;50.938;11.396;2022-08-19T00:07:25;23.90;;;16.42;;
73296;SDS011;61524;50.938;11.396;2022-08-19T00:09:50;24.08;;;16.60;;
73296;SDS011;61524;50.938;11.396;2022-08-19T00:12:16;23.17;;;16.55;;
73296;SDS011;61524;50.938;11.396;2022-08-19T00:14:41;20.45;;;15.38;;
73296;SDS011;61524;50.938;11.396;2022-08-19T00:17:07;23.33;;;16.98;;
73296;SDS011;61524;50.938;11.396;2022-08-19T00:19:33;23.00;;;17.38;;
73296;SDS011;61524;50.938;11.396;2022-08-19T00:22:00;21.85;;;16.73;;
73296;SDS011;61524;50.938;11.396;2022-08-19T00:24:27;27.75;;;17.20;;
73296;SDS011;61524;50.938;11.396;2022-08-19T00:26:54;25.98;;;16.58;;
73296;SDS011;61524;50.938;11.396;2022-08-19T00:29:21;24.05;;;16.48;;
73296;SDS011;61524;50.938;11.396;2022-08-19T00:31:48;24.10;;;16.98;;
73296;SDS011;61524;50.938;11.396;2022-08-19T00:34:16;24.40;;;16.75;;
73296;SDS011;61524;50.938;11.396;2022-08-19T00:36:42;24.92;;;17.48;;
73296;SDS011;61524;50.938;11.396;2022-08-19T00:41:33;23.02;;;15.27;;
73296;SDS011;61524;50.938;11.396;2022-08-19T00:44:06;21.10;;;14.10;;
73296;SDS011;61524;50.938;11.396;2022-08-19T00:46:41;20.60;;;14.77;;
73296;SDS011;61524;50.938;11.396;2022-08-19T00:49:10;21.48;;;15.43;;
73296;SDS011;61524;50.938;11.396;2022-08-19T00:51:39;21.50;;;15.27;;
73296;SDS011;61524;50.938;11.396;2022-08-19T00:54:07;22.92;;;15.95;;
73296;SDS011;61524;50.938;11.396;2022-08-19T00:59:00;19.92;;;14.27;;
73296;SDS011;61524;50.938;11.396;2022-08-19T01:03:52;21.63;;;15.48;;
73296;SDS011;61524;50.938;11.396;2022-08-19T01:06:18;20.40;;;14.07;;
73296;SDS011;61524;50.938;11.396;2022-08-19T01:08:43;20.92;;;14.63;;
73296;SDS011;61524;50.938;11.396;2022-08-19T01:11:09;21.33;;;14.93;;
73296;SDS011;61524;50.938;11.396;2022-08-19T01:13:35;19.17;;;14.82;;
73296;SDS011;61524;50.938;11.396;2022-08-19T01:16:05;22.13;;;15.65;;
73296;SDS011;61524;50.938;11.396;2022-08-19T01:18:38;21.92;;;15.32;;
73296;SDS011;61524;50.938;11.396;2022-08-19T01:21:10;17.83;;;13.43;;
73296;SDS011;61524;50.938;11.396;2022-08-19T01:23:42;18.17;;;12.90;;
73296;SDS011;61524;50.938;11.396;2022-08-19T01:26:10;20.55;;;13.23;;
73296;SDS011;61524;50.938;11.396;2022-08-19T01:28:39;18.45;;;13.20;;
73296;SDS011;61524;50.938;11.396;2022-08-19T01:31:07;18.80;;;13.38;;
73296;SDS011;61524;50.938;11.396;2022-08-19T01:33:36;17.65;;;13.02;;
73296;SDS011;61524;50.938;11.396;2022-08-19T01:36:12;18.13;;;13.13;;
73296;SDS011;61524;50.938;11.396;2022-08-19T01:38:41;18.73;;;13.25;;
73296;SDS011;61524;50.938;11.396;2022-08-19T01:41:08;19.33;;;12.57;;
73296;SDS011;61524;50.938;11.396;2022-08-19T01:43:35;20.85;;;12.43;;
73296;SDS011;61524;50.938;11.396;2022-08-19T01:46:01;17.35;;;12.98;;
73296;SDS011;61524;50.938;11.396;2022-08-19T01:48:32;15.23;;;11.32;;
73296;SDS011;61524;50.938;11.396;2022-08-19T01:50:59;19.10;;;12.10;;
73296;SDS011;61524;50.938;11.396;2022-08-19T01:53:24;15.98;;;12.02;;
73296;SDS011;61524;50.938;11.396;2022-08-19T01:55:50;16.73;;;11.98;;
73296;SDS011;61524;50.938;11.396;2022-08-19T01:58:17;19.88;;;13.20;;
73296;SDS011;61524;50.938;11.396;2022-08-19T02:00:45;15.88;;;12.07;;
73296;SDS011;61524;50.938;11.396;2022-08-19T02:03:12;18.17;;;12.65;;
73296;SDS011;61524;50.938;11.396;2022-08-19T02:05:37;16.88;;;12.85;;
73296;SDS011;61524;50.938;11.396;2022-08-19T02:08:04;17.60;;;13.23;;
73296;SDS011;61524;50.938;11.396;2022-08-19T02:10:30;21.00;;;14.65;;
73296;SDS011;61524;50.938;11.396;2022-08-19T02:12:56;20.73;;;14.52;;
73296;SDS011;61524;50.938;11.396;2022-08-19T02:15:22;19.17;;;13.80;;
73296;SDS011;61524;50.938;11.396;2022-08-19T02:17:49;20.10;;;15.27;;
73296;SDS011;61524;50.938;11.396;2022-08-19T02:20:15;21.08;;;14.50;;
73296;SDS011;61524;50.938;11.396;2022-08-19T02:22:41;21.83;;;15.43;;
73296;SDS011;61524;50.938;11.396;2022-08-19T02:27:33;21.38;;;14.65;;
73296;SDS011;61524;50.938;11.396;2022-08-19T02:29:59;20.63;;;14.52;;
73296;SDS011;61524;50.938;11.396;2022-08-19T02:32:24;22.13;;;15.18;;
73296;SDS011;61524;50.938;11.396;2022-08-19T02:34:50;22.60;;;15.52;;
73296;SDS011;61524;50.938;11.396;2022-08-19T02:37:15;20.90;;;15.68;;
73296;SDS011;61524;50.938;11.396;2022-08-19T02:40:00;21.63;;;15.25;;
73296;SDS011;61524;50.938;11.396;2022-08-19T02:42:26;22.58;;;16.02;;
73296;SDS011;61524;50.938;11.396;2022-08-19T02:44:51;23.20;;;15.68;;
73296;SDS011;61524;50.938;11.396;2022-08-19T02:47:17;21.67;;;14.65;;
73296;SDS011;61524;50.938;11.396;2022-08-19T02:49:44;24.50;;;15.80;;
73296;SDS011;61524;50.938;11.396;2022-08-19T02:52:10;20.48;;;15.85;;
73296;SDS011;61524;50.938;11.396;2022-08-19T02:54:36;23.67;;;16.05;;
73296;SDS011;61524;50.938;11.396;2022-08-19T02:59:31;22.77;;;14.80;;
73296;SDS011;61524;50.938;11.396;2022-08-19T03:01:57;22.20;;;14.65;;
73296;SDS011;61524;50.938;11.396;2022-08-19T03:04:23;20.90;;;15.07;;
73296;SDS011;61524;50.938;11.396;2022-08-19T03:06:49;23.55;;;15.98;;
73296;SDS011;61524;50.938;11.396;2022-08-19T03:09:15;22.75;;;15.98;;
73296;SDS011;61524;50.938;11.396;2022-08-19T03:11:42;20.38;;;15.27;;
73296;SDS011;61524;50.938;11.396;2022-08-19T03:14:08;20.60;;;14.73;;
73296;SDS011;61524;50.938;11.396;2022-08-19T03:19:07;24.75;;;15.50;;
73296;SDS011;61524;50.938;11.396;2022-08-19T03:21:33;24.95;;;14.90;;
73296;SDS011;61524;50.938;11.396;2022-08-19T03:24:00;24.10;;;17.77;;
73296;SDS011;61524;50.938;11.396;2022-08-19T03:26:30;22.80;;;15.02;;
73296;SDS011;61524;50.938;11.396;2022-08-19T03:28:56;24.08;;;15.55;;
73296;SDS011;61524;50.938;11.396;2022-08-19T03:31:22;24.48;;;16.52;;
73296;SDS011;61524;50.938;11.396;2022-08-19T03:33:49;23.17;;;15.77;;
73296;SDS011;61524;50.938;11.396;2022-08-19T03:36:17;21.52;;;15.43;;
73296;SDS011;61524;50.938;11.396;2022-08-19T03:38:57;22.67;;;17.63;;
73296;SDS011;61524;50.938;11.396;2022-08-19T03:41:32;23.25;;;15.57;;
73296;SDS011;61524;50.938;11.396;2022-08-19T03:44:02;27.73;;;17.75;;
73296;SDS011;61524;50.938;11.396;2022-08-19T03:46:30;23.55;;;16.08;;
73296;SDS011;61524;50.938;11.396;2022-08-19T03:48:57;24.90;;;17.63;;
73296;SDS011;61524;50.938;11.396;2022-08-19T03:53:54;24.00;;;16.83;;
73296;SDS011;61524;50.938;11.396;2022-08-19T03:56:21;23.58;;;17.27;;
73296;SDS011;61524;50.938;11.396;2022-08-19T03:58:47;26.55;;;17.95;;
73296;SDS011;61524;50.938;11.396;2022-08-19T04:01:17;28.00;;;19.10;;
73296;SDS011;61524;50.938;11.396;2022-08-19T04:03:44;26.65;;;18.77;;
73296;SDS011;61524;50.938;11.396;2022-08-19T04:08:46;26.83;;;18.23;;
73296;SDS011;61524;50.938;11.396;2022-08-19T04:11:16;22.30;;;16.35;;
73296;SDS011;61524;50.938;11.396;2022-08-19T04:13:45;25.55;;;18.33;;
73296;SDS011;61524;50.938;11.396;2022-08-19T04:16:11;27.00;;;18.88;;
73296;SDS011;61524;50.938;11.396;2022-08-19T04:18:38;24.60;;;17.73;;
73296;SDS011;61524;50.938;11.396;2022-08-19T04:21:05;26.60;;;17.77;;
73296;SDS011;61524;50.938;11.396;2022-08-19T04:23:32;26.67;;;17.77;;
73296;SDS011;61524;50.938;11.396;2022-08-19T04:25:58;26.25;;;18.08;;
73296;SDS011;61524;50.938;11.396;2022-08-19T04:28:23;26.83;;;18.55;;
73296;SDS011;61524;50.938;11.396;2022-08-19T04:30:50;25.92;;;17.50;;
73296;SDS011;61524;50.938;11.396;2022-08-19T04:33:18;30.17;;;18.83;;
73296;SDS011;61524;50.938;11.396;2022-08-19T04:35:48;26.20;;;18.40;;
73296;SDS011;61524;50.938;11.396;2022-08-19T04:38:16;27.38;;;18.55;;
73296;SDS011;61524;50.938;11.396;2022-08-19T04:40:45;26.95;;;19.27;;
73296;SDS011;61524;50.938;11.396;2022-08-19T04:43:31;28.35;;;19.67;;
73296;SDS011;61524;50.938;11.396;2022-08-19T04:45:57;28.92;;;19.38;;
73296;SDS011;61524;50.938;11.396;2022-08-19T04:48:23;26.23;;;18.33;;
73296;SDS011;61524;50.938;11.396;2022-08-19T04:50:52;28.50;;;20.02;;
73296;SDS011;61524;50.938;11.396;2022-08-19T04:53:26;28.95;;;18.98;;
73296;SDS011;61524;50.938;11.396;2022-08-19T04:55:56;28.20;;;18.73;;
73296;SDS011;61524;50.938;11.396;2022-08-19T04:58:23;27.20;;;19.65;;
73296;SDS011;61524;50.938;11.396;2022-08-19T05:00:50;29.80;;;19.42;;
73296;SDS011;61524;50.938;11.396;2022-08-19T05:03:16;27.80;;;18.45;;
73296;SDS011;61524;50.938;11.396;2022-08-19T05:05:42;29.25;;;18.38;;
73296;SDS011;61524;50.938;11.396;2022-08-19T05:08:10;27.45;;;19.00;;
73296;SDS011;61524;50.938;11.396;2022-08-19T05:10:39;29.17;;;18.95;;
73296;SDS011;61524;50.938;11.396;2022-08-19T05:13:05;27.00;;;19.77;;
73296;SDS011;61524;50.938;11.396;2022-08-19T05:15:31;29.92;;;20.25;;
73296;SDS011;61524;50.938;11.396;2022-08-19T05:17:56;27.88;;;19.10;;
73296;SDS011;61524;50.938;11.396;2022-08-19T05:20:40;28.58;;;18.73;;
73296;SDS011;61524;50.938;11.396;2022-08-19T05:23:24;26.05;;;17.73;;
73296;SDS011;61524;50.938;11.396;2022-08-19T05:25:50;29.80;;;18.02;;
73296;SDS011;61524;50.938;11.396;2022-08-19T05:28:16;27.98;;;18.67;;
73296;SDS011;61524;50.938;11.396;2022-08-19T05:30:43;30.73;;;19.10;;
73296;SDS011;61524;50.938;11.396;2022-08-19T05:33:10;28.48;;;19.17;;
73296;SDS011;61524;50.938;11.396;2022-08-19T05:35:40;30.73;;;20.45;;
73296;SDS011;61524;50.938;11.396;2022-08-19T05:38:06;26.77;;;19.08;;
73296;SDS011;61524;50.938;11.396;2022-08-19T05:40:36;31.55;;;19.92;;
73296;SDS011;61524;50.938;11.396;2022-08-19T05:43:03;33.97;;;22.42;;
73296;SDS011;61524;50.938;11.396;2022-08-19T05:45:32;30.92;;;20.58;;
73296;SDS011;61524;50.938;11.396;2022-08-19T05:48:03;34.00;;;21.27;;
73296;SDS011;61524;50.938;11.396;2022-08-19T05:50:28;34.00;;;21.35;;
73296;SDS011;61524;50.938;11.396;2022-08-19T05:52:54;32.03;;;21.73;;
73296;SDS011;61524;50.938;11.396;2022-08-19T05:55:20;29.48;;;20.75;;
73296;SDS011;61524;50.938;11.396;2022-08-19T05:57:46;32.95;;;22.00;;
73296;SDS011;61524;50.938;11.396;2022-08-19T06:02:38;33.60;;;21.17;;
73296;SDS011;61524;50.938;11.396;2022-08-19T06:07:31;34.40;;;21.88;;
73296;SDS011;61524;50.938;11.396;2022-08-19T06:09:57;33.20;;;21.80;;
73296;SDS011;61524;50.938;11.396;2022-08-19T06:12:22;33.08;;;22.77;;
73296;SDS011;61524;50.938;11.396;2022-08-19T06:14:53;34.45;;;23.17;;
73296;SDS011;61524;50.938;11.396;2022-08-19T06:17:20;30.52;;;21.48;;
73296;SDS011;61524;50.938;11.396;2022-08-19T06:19:49;37.78;;;23.88;;
73296;SDS011;61524;50.938;11.396;2022-08-19T06:22:15;35.90;;;22.80;;
73296;SDS011;61524;50.938;11.396;2022-08-19T06:24:41;32.80;;;21.25;;
73296;SDS011;61524;50.938;11.396;2022-08-19T06:27:07;31.88;;;22.73;;
73296;SDS011;61524;50.938;11.396;2022-08-19T06:29:33;31.58;;;20.95;;
73296;SDS011;61524;50.938;11.396;2022-08-19T06:32:00;33.42;;;22.58;;
73296;SDS011;61524;50.938;11.396;2022-08-19T06:34:28;35.88;;;21.85;;
73296;SDS011;61524;50.938;11.396;2022-08-19T06:36:55;32.75;;;21.25;;
73296;SDS011;61524;50.938;11.396;2022-08-19T06:39:27;34.85;;;21.70;;
73296;SDS011;61524;50.938;11.396;2022-08-19T06:41:56;34.95;;;22.15;;
73296;SDS011;61524;50.938;11.396;2022-08-19T06:44:24;33.28;;;21.90;;
73296;SDS011;61524;50.938;11.396;2022-08-19T06:46:51;34.65;;;22.02;;
73296;SDS011;61524;50.938;11.396;2022-08-19T06:49:18;34.80;;;21.35;;
73296;SDS011;61524;50.938;11.396;2022-08-19T06:51:45;34.65;;;22.80;;
73296;SDS011;61524;50.938;11.396;2022-08-19T06:54:15;30.77;;;21.85;;
73296;SDS011;61524;50.938;11.396;2022-08-19T06:56:42;34.05;;;21.92;;
73296;SDS011;61524;50.938;11.396;2022-08-19T06:59:11;33.30;;;21.73;;
73296;SDS011;61524;50.938;11.396;2022-08-19T07:01:45;35.50;;;22.15;;
73296;SDS011;61524;50.938;11.396;2022-08-19T07:04:16;31.85;;;21.95;;
73296;SDS011;61524;50.938;11.396;2022-08-19T07:06:43;30.42;;;20.60;;
73296;SDS011;61524;50.938;11.396;2022-08-19T07:09:11;30.30;;;21.15;;
73296;SDS011;61524;50.938;11.396;2022-08-19T07:11:39;31.58;;;21.85;;
73296;SDS011;61524;50.938;11.396;2022-08-19T07:14:19;31.10;;;19.98;;
73296;SDS011;61524;50.938;11.396;2022-08-19T07:16:47;29.10;;;20.10;;
73296;SDS011;61524;50.938;11.396;2022-08-19T07:19:15;28.52;;;19.67;;
73296;SDS011;61524;50.938;11.396;2022-08-19T07:21:42;26.40;;;18.92;;
73296;SDS011;61524;50.938;11.396;2022-08-19T07:24:07;26.20;;;19.40;;
73296;SDS011;61524;50.938;11.396;2022-08-19T07:26:40;30.73;;;19.00;;
73296;SDS011;61524;50.938;11.396;2022-08-19T07:29:07;27.13;;;17.45;;
73296;SDS011;61524;50.938;11.396;2022-08-19T07:31:33;29.90;;;17.73;;
73296;SDS011;61524;50.938;11.396;2022-08-19T07:34:02;28.50;;;16.95;;
73296;SDS011;61524;50.938;11.396;2022-08-19T07:36:31;23.08;;;17.25;;
73296;SDS011;61524;50.938;11.396;2022-08-19T07:38:59;24.33;;;17.40;;
73296;SDS011;61524;50.938;11.396;2022-08-19T07:41:27;22.83;;;16.48;;
73296;SDS011;61524;50.938;11.396;2022-08-19T07:43:54;25.20;;;16.20;;
73296;SDS011;61524;50.938;11.396;2022-08-19T07:46:20;23.88;;;16.02;;
73296;SDS011;61524;50.938;11.396;2022-08-19T07:48:46;25.52;;;16.02;;
73296;SDS011;61524;50.938;11.396;2022-08-19T07:51:13;22.60;;;16.08;;
73296;SDS011;61524;50.938;11.396;2022-08-19T07:53:41;21.13;;;14.40;;
73296;SDS011;61524;50.938;11.396;2022-08-19T07:56:08;19.08;;;14.90;;
73296;SDS011;61524;50.938;11.396;2022-08-19T07:58:35;17.90;;;13.80;;
73296;SDS011;61524;50.938;11.396;2022-08-19T08:01:04;21.48;;;15.60;;
73296;SDS011;61524;50.938;11.396;2022-08-19T08:03:32;19.55;;;14.27;;
73296;SDS011;61524;50.938;11.396;2022-08-19T08:06:24;18.17;;;13.43;;
73296;SDS011;61524;50.938;11.396;2022-08-19T08:09:09;19.77;;;12.82;;
73296;SDS011;61524;50.938;11.396;2022-08-19T08:11:52;19.05;;;13.88;;
73296;SDS011;61524;50.938;11.396;2022-08-19T08:14:29;20.67;;;13.63;;
73296;SDS011;61524;50.938;11.396;2022-08-19T08:16:57;18.83;;;13.00;;
73296;SDS011;61524;50.938;11.396;2022-08-19T08:19:24;21.80;;;13.18;;
73296;SDS011;61524;50.938;11.396;2022-08-19T08:21:53;20.77;;;12.80;;
73296;SDS011;61524;50.938;11.396;2022-08-19T08:24:20;20.10;;;13.85;;
73296;SDS011;61524;50.938;11.396;2022-08-19T08:26:45;21.63;;;14.90;;
73296;SDS011;61524;50.938;11.396;2022-08-19T08:29:11;22.30;;;13.18;;
73296;SDS011;61524;50.938;11.396;2022-08-19T08:31:38;19.20;;;12.55;;
73296;SDS011;61524;50.938;11.396;2022-08-19T08:34:05;18.08;;;12.35;;
73296;SDS011;61524;50.938;11.396;2022-08-19T08:36:31;18.33;;;10.73;;
73296;SDS011;61524;50.938;11.396;2022-08-19T08:38:58;15.18;;;9.77;;
73296;SDS011;61524;50.938;11.396;2022-08-19T08:43:59;13.55;;;9.70;;
73296;SDS011;61524;50.938;11.396;2022-08-19T08:49:15;14.02;;;9.57;;
73296;SDS011;61524;50.938;11.396;2022-08-19T08:51:59;14.40;;;9.70;;
73296;SDS011;61524;50.938;11.396;2022-08-19T08:54:41;13.35;;;9.70;;
73296;SDS011;61524;50.938;11.396;2022-08-19T08:57:12;15.23;;;8.90;;
73296;SDS011;61524;50.938;11.396;2022-08-19T08:59:43;15.30;;;9.57;;
73296;SDS011;61524;50.938;11.396;2022-08-19T09:02:17;12.70;;;9.90;;
73296;SDS011;61524;50.938;11.396;2022-08-19T09:04:43;15.88;;;9.68;;
73296;SDS011;61524;50.938;11.396;2022-08-19T09:07:54;12.38;;;9.27;;
73296;SDS011;61524;50.938;11.396;2022-08-19T09:10:07;12.60;;;9.18;;
73296;SDS011;61524;50.938;11.396;2022-08-19T09:13:24;13.73;;;9.15;;
73296;SDS011;61524;50.938;11.396;2022-08-19T09:15:33;16.90;;;9.27;;
73296;SDS011;61524;50.938;11.396;2022-08-19T09:18:04;12.27;;;8.43;;
73296;SDS011;61524;50.938;11.396;2022-08-19T09:20:31;11.73;;;7.63;;
73296;SDS011;61524;50.938;11.396;2022-08-19T09:25:23;10.05;;;6.85;;
73296;SDS011;61524;50.938;11.396;2022-08-19T09:27:50;9.48;;;6.63;;
73296;SDS011;61524;50.938;11.396;2022-08-19T09:30:28;11.10;;;6.05;;
73296;SDS011;61524;50.938;11.396;2022-08-19T09:33:00;10.45;;;6.07;;
73296;SDS011;61524;50.938;11.396;2022-08-19T09:35:26;9.07;;;6.18;;
73296;SDS011;61524;50.938;11.396;2022-08-19T09:37:56;9.00;;;5.90;;
73296;SDS011;61524;50.938;11.396;2022-08-19T09:40:23;9.90;;;5.60;;
73296;SDS011;61524;50.938;11.396;2022-08-19T09:42:49;7.88;;;5.57;;
73296;SDS011;61524;50.938;11.396;2022-08-19T09:45:15;8.43;;;4.82;;
73296;SDS011;61524;50.938;11.396;2022-08-19T09:47:45;8.35;;;4.97;;
73296;SDS011;61524;50.938;11.396;2022-08-19T09:50:11;9.48;;;5.45;;
73296;SDS011;61524;50.938;11.396;2022-08-19T09:55:07;10.10;;;5.25;;
73296;SDS011;61524;50.938;11.396;2022-08-19T09:57:34;9.43;;;5.47;;
73296;SDS011;61524;50.938;11.396;2022-08-19T10:00:00;8.80;;;4.70;;
73296;SDS011;61524;50.938;11.396;2022-08-19T10:02:26;8.82;;;4.82;;
73296;SDS011;61524;50.938;11.396;2022-08-19T10:04:52;8.63;;;4.57;;
73296;SDS011;61524;50.938;11.396;2022-08-19T10:07:36;7.90;;;4.45;;
73296;SDS011;61524;50.938;11.396;2022-08-19T10:10:03;7.53;;;4.55;;
73296;SDS011;61524;50.938;11.396;2022-08-19T10:12:31;6.47;;;4.32;;
73296;SDS011;61524;50.938;11.396;2022-08-19T10:17:23;7.55;;;4.03;;
73296;SDS011;61524;50.938;11.396;2022-08-19T10:19:50;6.40;;;3.85;;
73296;SDS011;61524;50.938;11.396;2022-08-19T10:22:16;6.93;;;3.92;;
73296;SDS011;61524;50.938;11.396;2022-08-19T10:24:43;6.43;;;3.92;;
73296;SDS011;61524;50.938;11.396;2022-08-19T10:27:08;6.50;;;3.90;;
73296;SDS011;61524;50.938;11.396;2022-08-19T10:29:34;6.70;;;3.92;;
73296;SDS011;61524;50.938;11.396;2022-08-19T10:32:00;5.78;;;3.42;;
73296;SDS011;61524;50.938;11.396;2022-08-19T10:34:27;5.65;;;3.53;;
73296;SDS011;61524;50.938;11.396;2022-08-19T10:36:55;5.82;;;3.65;;
73296;SDS011;61524;50.938;11.396;2022-08-19T10:39:21;7.15;;;3.63;;
73296;SDS011;61524;50.938;11.396;2022-08-19T10:41:47;6.10;;;4.00;;
73296;SDS011;61524;50.938;11.396;2022-08-19T10:44:12;5.00;;;3.60;;
73296;SDS011;61524;50.938;11.396;2022-08-19T10:46:40;10.77;;;7.20;;
73296;SDS011;61524;50.938;11.396;2022-08-19T10:49:08;9.13;;;5.90;;
73296;SDS011;61524;50.938;11.396;2022-08-19T10:51:36;5.75;;;4.10;;
73296;SDS011;61524;50.938;11.396;2022-08-19T10:54:21;10.90;;;5.13;;
73296;SDS011;61524;50.938;11.396;2022-08-19T10:56:47;5.80;;;3.80;;
73296;SDS011;61524;50.938;11.396;2022-08-19T10:59:16;6.43;;;4.68;;
73296;SDS011;61524;50.938;11.396;2022-08-19T11:01:44;6.53;;;3.67;;
73296;SDS011;61524;50.938;11.396;2022-08-19T11:04:10;10.55;;;7.47;;
73296;SDS011;61524;50.938;11.396;2022-08-19T11:06:38;9.40;;;6.63;;
73296;SDS011;61524;50.938;11.396;2022-08-19T11:09:06;12.63;;;7.00;;
73296;SDS011;61524;50.938;11.396;2022-08-19T11:11:32;9.60;;;6.88;;
73296;SDS011;61524;50.938;11.396;2022-08-19T11:14:05;8.75;;;6.18;;
73296;SDS011;61524;50.938;11.396;2022-08-19T11:16:35;11.65;;;7.13;;
73296;SDS011;61524;50.938;11.396;2022-08-19T11:19:02;11.10;;;6.78;;
73296;SDS011;61524;50.938;11.396;2022-08-19T11:21:32;8.88;;;5.93;;
73296;SDS011;61524;50.938;11.396;2022-08-19T11:24:10;7.97;;;5.90;;
73296;SDS011;61524;50.938;11.396;2022-08-19T11:26:38;11.40;;;6.40;;
73296;SDS011;61524;50.938;11.396;2022-08-19T11:29:05;10.45;;;6.85;;
73296;SDS011;61524;50.938;11.396;2022-08-19T11:31:36;10.02;;;6.38;;
73296;SDS011;61524;50.938;11.396;2022-08-19T11:34:05;9.02;;;5.88;;
73296;SDS011;61524;50.938;11.396;2022-08-19T11:36:32;10.00;;;6.55;;
73296;SDS011;61524;50.938;11.396;2022-08-19T11:38:58;9.45;;;6.38;;
73296;SDS011;61524;50.938;11.396;2022-08-19T11:41:24;11.18;;;7.25;;
73296;SDS011;61524;50.938;11.396;2022-08-19T11:43:51;8.77;;;6.05;;
73296;SDS011;61524;50.938;11.396;2022-08-19T11:46:19;9.10;;;5.97;;
73296;SDS011;61524;50.938;11.396;2022-08-19T11:51:12;9.40;;;6.13;;
73296;SDS011;61524;50.938;11.396;2022-08-19T11:53:40;8.00;;;5.72;;
73296;SDS011;61524;50.938;11.396;2022-08-19T11:56:07;9.15;;;5.68;;
73296;SDS011;61524;50.938;11.396;2022-08-19T11:58:34;8.65;;;6.10;;
73296;SDS011;61524;50.938;11.396;2022-08-19T12:00:59;8.95;;;5.55;;
73296;SDS011;61524;50.938;11.396;2022-08-19T12:03:25;10.80;;;6.55;;
73296;SDS011;61524;50.938;11.396;2022-08-19T12:05:51;9.43;;;6.53;;
73296;SDS011;61524;50.938;11.396;2022-08-19T12:08:17;8.25;;;6.20;;
73296;SDS011;61524;50.938;11.396;2022-08-19T12:10:43;12.15;;;6.32;;
73296;SDS011;61524;50.938;11.396;2022-08-19T12:13:10;10.50;;;6.45;;
73296;SDS011;61524;50.938;11.396;2022-08-19T12:15:43;9.90;;;6.72;;
73296;SDS011;61524;50.938;11.396;2022-08-19T12:18:10;10.60;;;5.65;;
73296;SDS011;61524;50.938;11.396;2022-08-19T12:20:36;9.45;;;5.78;;
73296;SDS011;61524;50.938;11.396;2022-08-19T12:23:04;8.43;;;6.32;;
73296;SDS011;61524;50.938;11.396;2022-08-19T12:25:31;10.35;;;5.93;;
73296;SDS011;61524;50.938;11.396;2022-08-19T12:27:57;9.82;;;6.43;;
73296;SDS011;61524;50.938;11.396;2022-08-19T12:30:23;9.60;;;6.75;;
73296;SDS011;61524;50.938;11.396;2022-08-19T12:32:49;8.82;;;6.68;;
73296;SDS011;61524;50.938;11.396;2022-08-19T12:35:16;9.57;;;6.97;;
73296;SDS011;61524;50.938;11.396;2022-08-19T12:37:42;8.95;;;6.22;;
73296;SDS011;61524;50.938;11.396;2022-08-19T12:40:09;10.15;;;5.97;;
73296;SDS011;61524;50.938;11.396;2022-08-19T12:42:37;10.95;;;5.88;;
73296;SDS011;61524;50.938;11.396;2022-08-19T12:45:07;8.00;;;5.38;;
73296;SDS011;61524;50.938;11.396;2022-08-19T12:47:34;5.70;;;4.43;;
73296;SDS011;61524;50.938;11.396;2022-08-19T12:50:00;5.05;;;3.35;;
73296;SDS011;61524;50.938;11.396;2022-08-19T12:52:26;4.63;;;3.00;;
73296;SDS011;61524;50.938;11.396;2022-08-19T12:57:19;5.45;;;2.75;;
73296;SDS011;61524;50.938;11.396;2022-08-19T12:59:44;5.78;;;3.45;;
73296;SDS011;61524;50.938;11.396;2022-08-19T13:02:10;4.25;;;2.42;;
73296;SDS011;61524;50.938;11.396;2022-08-19T13:04:36;4.40;;;2.53;;
73296;SDS011;61524;50.938;11.396;2022-08-19T13:07:05;5.32;;;3.00;;
73296;SDS011;61524;50.938;11.396;2022-08-19T13:09:32;4.40;;;2.78;;
73296;SDS011;61524;50.938;11.396;2022-08-19T13:11:58;4.20;;;2.70;;
73296;SDS011;61524;50.938;11.396;2022-08-19T13:14:27;4.80;;;2.85;;
73296;SDS011;61524;50.938;11.396;2022-08-19T13:16:54;5.30;;;2.85;;
73296;SDS011;61524;50.938;11.396;2022-08-19T13:19:19;4.03;;;2.65;;
73296;SDS011;61524;50.938;11.396;2022-08-19T13:21:49;4.05;;;2.67;;
73296;SDS011;61524;50.938;11.396;2022-08-19T13:24:16;5.25;;;2.97;;
73296;SDS011;61524;50.938;11.396;2022-08-19T13:29:07;3.70;;;2.30;;
73296;SDS011;61524;50.938;11.396;2022-08-19T13:31:51;4.50;;;2.58;;
73296;SDS011;61524;50.938;11.396;2022-08-19T13:34:35;4.03;;;2.38;;
73296;SDS011;61524;50.938;11.396;2022-08-19T13:39:29;4.65;;;2.15;;
73296;SDS011;61524;50.938;11.396;2022-08-19T13:41:57;3.65;;;1.98;;
73296;SDS011;61524;50.938;11.396;2022-08-19T13:44:24;4.35;;;2.17;;
73296;SDS011;61524;50.938;11.396;2022-08-19T13:46:50;4.25;;;2.33;;
73296;SDS011;61524;50.938;11.396;2022-08-19T13:49:17;3.65;;;2.00;;
73296;SDS011;61524;50.938;11.396;2022-08-19T13:51:43;3.33;;;2.08;;
73296;SDS011;61524;50.938;11.396;2022-08-19T13:54:09;3.40;;;2.55;;
73296;SDS011;61524;50.938;11.396;2022-08-19T13:56:39;4.38;;;2.20;;
73296;SDS011;61524;50.938;11.396;2022-08-19T13:59:09;4.38;;;2.20;;
73296;SDS011;61524;50.938;11.396;2022-08-19T14:01:35;4.35;;;2.05;;
73296;SDS011;61524;50.938;11.396;2022-08-19T14:04:01;5.15;;;2.03;;
73296;SDS011;61524;50.938;11.396;2022-08-19T14:06:27;3.58;;;2.15;;
73296;SDS011;61524;50.938;11.396;2022-08-19T14:08:53;3.85;;;2.20;;
73296;SDS011;61524;50.938;11.396;2022-08-19T14:11:18;4.10;;;1.90;;
73296;SDS011;61524;50.938;11.396;2022-08-19T14:13:44;3.40;;;2.08;;
73296;SDS011;61524;50.938;11.396;2022-08-19T14:16:10;5.18;;;2.00;;
73296;SDS011;61524;50.938;11.396;2022-08-19T14:18:38;4.25;;;2.13;;
73296;SDS011;61524;50.938;11.396;2022-08-19T14:21:04;3.67;;;2.40;;
73296;SDS011;61524;50.938;11.396;2022-08-19T14:23:31;3.22;;;1.90;;
73296;SDS011;61524;50.938;11.396;2022-08-19T14:26:04;4.80;;;2.33;;
73296;SDS011;61524;50.938;11.396;2022-08-19T14:28:32;3.83;;;2.10;;
73296;SDS011;61524;50.938;11.396;2022-08-19T14:30:58;4.53;;;2.55;;
73296;SDS011;61524;50.938;11.396;2022-08-19T14:33:23;3.97;;;2.10;;
73296;SDS011;61524;50.938;11.396;2022-08-19T14:35:48;3.70;;;2.05;;
73296;SDS011;61524;50.938;11.396;2022-08-19T14:38:15;4.82;;;2.25;;
73296;SDS011;61524;50.938;11.396;2022-08-19T14:40:42;3.30;;;1.95;;
73296;SDS011;61524;50.938;11.396;2022-08-19T14:43:08;4.97;;;2.60;;
73296;SDS011;61524;50.938;11.396;2022-08-19T14:45:35;3.80;;;2.20;;
73296;SDS011;61524;50.938;11.396;2022-08-19T14:48:03;3.88;;;2.20;;
73296;SDS011;61524;50.938;11.396;2022-08-19T14:50:29;4.20;;;2.20;;
73296;SDS011;61524;50.938;11.396;2022-08-19T14:53:03;4.25;;;2.20;;
73296;SDS011;61524;50.938;11.396;2022-08-19T14:55:31;6.45;;;2.65;;
73296;SDS011;61524;50.938;11.396;2022-08-19T14:57:57;5.53;;;2.20;;
73296;SDS011;61524;50.938;11.396;2022-08-19T15:00:23;4.28;;;2.20;;
73296;SDS011;61524;50.938;11.396;2022-08-19T15:02:49;3.47;;;2.17;;
73296;SDS011;61524;50.938;11.396;2022-08-19T15:05:15;4.32;;;2.50;;
73296;SDS011;61524;50.938;11.396;2022-08-19T15:07:41;3.85;;;2.50;;
73296;SDS011;61524;50.938;11.396;2022-08-19T15:10:07;4.15;;;2.60;;